Fort Steele, Canada
Current Conditions -  °F | °C
As of 12:00 AM on Wednesday 22 Oct 2014 (Local Time) from CYXC Reporting Station
Broken Clouds Broken Clouds  
Wind Chill: 46°   Ceiling: 8000
Heat Index: 46°   Visibility: 25mi
Dew Point: 37°   Wind: 3mph
Humidity: 71%   Direction: 320°NW
Pressure: 29.93"   Gusts: NA
Location:  49.62°N, 115.63°W
Report Text: CYXC 220600Z 32003KT 25SM BKN080 08/03 A2993 RMK AC5 SLP142
Loading
Personal Weather Stations






























Interactive Weather Map
Tropical Storm Tracking
New forecast layout! Learn more

10-Day Weather Forecast

Advertisements
Track Severe Weather on mobile